sensor_id;sensor_type;location;lat;lon;timestamp;pressure;altitude;pressure_sealevel;temperature;humidity
68873;BME280;55907;50.806;12.882;2023-05-10T00:00:35;967.4;;;12.4;53.7
68873;BME280;55907;50.806;12.882;2023-05-10T00:03:37;967.4;;;12.4;54.1
68873;BME280;55907;50.806;12.882;2023-05-10T00:06:38;967.3;;;12.4;54.1
68873;BME280;55907;50.806;12.882;2023-05-10T00:09:40;967.4;;;12.3;54.1
68873;BME280;55907;50.806;12.882;2023-05-10T00:12:42;967.3;;;12.3;54.4
68873;BME280;55907;50.806;12.882;2023-05-10T00:18:44;967.3;;;12.3;54.3
68873;BME280;55907;50.806;12.882;2023-05-10T00:21:46;967.3;;;12.2;54.5
68873;BME280;55907;50.806;12.882;2023-05-10T00:24:47;967.2;;;12.2;54.6
68873;BME280;55907;50.806;12.882;2023-05-10T00:27:49;967.2;;;12.2;54.8
68873;BME280;55907;50.806;12.882;2023-05-10T00:30:50;967.3;;;12.2;55.1
68873;BME280;55907;50.806;12.882;2023-05-10T00:33:52;967.3;;;12.2;55.0
68873;BME280;55907;50.806;12.882;2023-05-10T00:36:53;967.2;;;12.1;55.2
68873;BME280;55907;50.806;12.882;2023-05-10T00:39:55;967.2;;;12.1;55.2
68873;BME280;55907;50.806;12.882;2023-05-10T00:42:57;967.2;;;12.1;55.3
68873;BME280;55907;50.806;12.882;2023-05-10T00:45:58;967.1;;;12.1;55.5
68873;BME280;55907;50.806;12.882;2023-05-10T00:49:00;967.1;;;12.0;55.6
68873;BME280;55907;50.806;12.882;2023-05-10T00:52:01;967.1;;;12.0;55.8
68873;BME280;55907;50.806;12.882;2023-05-10T00:55:03;966.9;;;12.0;55.6
68873;BME280;55907;50.806;12.882;2023-05-10T00:58:04;966.9;;;12.0;55.8
68873;BME280;55907;50.806;12.882;2023-05-10T01:01:06;966.9;;;12.0;55.6
68873;BME280;55907;50.806;12.882;2023-05-10T01:04:07;966.8;;;12.0;56.1
68873;BME280;55907;50.806;12.882;2023-05-10T01:07:09;967.0;;;11.9;56.2
68873;BME280;55907;50.806;12.882;2023-05-10T01:10:10;967.1;;;12.0;56.0
68873;BME280;55907;50.806;12.882;2023-05-10T01:13:12;967.0;;;11.9;56.2
68873;BME280;55907;50.806;12.882;2023-05-10T01:16:13;966.8;;;11.9;56.2
68873;BME280;55907;50.806;12.882;2023-05-10T01:19:19;966.9;;;11.9;56.3
68873;BME280;55907;50.806;12.882;2023-05-10T01:22:33;966.8;;;11.9;56.5
68873;BME280;55907;50.806;12.882;2023-05-10T01:25:32;966.8;;;11.8;56.7
68873;BME280;55907;50.806;12.882;2023-05-10T01:28:35;966.9;;;11.8;56.7
68873;BME280;55907;50.806;12.882;2023-05-10T01:31:25;966.9;;;11.7;56.9
68873;BME280;55907;50.806;12.882;2023-05-10T01:34:25;966.8;;;11.6;57.2
68873;BME280;55907;50.806;12.882;2023-05-10T01:37:28;966.8;;;11.6;57.4
68873;BME280;55907;50.806;12.882;2023-05-10T01:40:29;966.8;;;11.5;57.6
68873;BME280;55907;50.806;12.882;2023-05-10T01:43:30;966.7;;;11.5;57.7
68873;BME280;55907;50.806;12.882;2023-05-10T01:46:32;966.7;;;11.6;57.6
68873;BME280;55907;50.806;12.882;2023-05-10T01:49:32;966.8;;;11.5;57.9
68873;BME280;55907;50.806;12.882;2023-05-10T01:52:33;966.8;;;11.5;57.8
68873;BME280;55907;50.806;12.882;2023-05-10T01:55:34;966.8;;;11.4;58.2
68873;BME280;55907;50.806;12.882;2023-05-10T01:58:36;966.8;;;11.4;57.9
68873;BME280;55907;50.806;12.882;2023-05-10T02:01:36;967.0;;;11.5;57.9
68873;BME280;55907;50.806;12.882;2023-05-10T02:04:38;967.0;;;11.5;58.1
68873;BME280;55907;50.806;12.882;2023-05-10T02:07:39;967.0;;;11.4;58.6
68873;BME280;55907;50.806;12.882;2023-05-10T02:10:40;967.0;;;11.4;59.4
68873;BME280;55907;50.806;12.882;2023-05-10T02:13:42;967.1;;;11.2;59.1
68873;BME280;55907;50.806;12.882;2023-05-10T02:16:44;967.1;;;11.2;59.1
68873;BME280;55907;50.806;12.882;2023-05-10T02:19:46;967.1;;;11.2;59.0
68873;BME280;55907;50.806;12.882;2023-05-10T02:22:49;967.1;;;11.2;59.7
68873;BME280;55907;50.806;12.882;2023-05-10T02:25:49;967.1;;;11.2;59.3
68873;BME280;55907;50.806;12.882;2023-05-10T02:28:50;967.0;;;11.2;59.4
68873;BME280;55907;50.806;12.882;2023-05-10T02:31:52;967.0;;;11.2;59.1
68873;BME280;55907;50.806;12.882;2023-05-10T02:34:53;967.0;;;11.2;59.6
68873;BME280;55907;50.806;12.882;2023-05-10T02:37:54;967.0;;;11.2;59.3
68873;BME280;55907;50.806;12.882;2023-05-10T02:40:56;966.9;;;11.1;59.7
68873;BME280;55907;50.806;12.882;2023-05-10T02:43:59;966.9;;;11.1;59.4
68873;BME280;55907;50.806;12.882;2023-05-10T02:46:58;966.9;;;11.1;59.8
68873;BME280;55907;50.806;12.882;2023-05-10T02:50:00;966.9;;;11.0;60.0
68873;BME280;55907;50.806;12.882;2023-05-10T02:53:06;966.9;;;10.9;60.4
68873;BME280;55907;50.806;12.882;2023-05-10T02:56:08;966.9;;;10.9;60.3
68873;BME280;55907;50.806;12.882;2023-05-10T02:59:04;967.0;;;10.8;60.3
68873;BME280;55907;50.806;12.882;2023-05-10T03:02:06;966.9;;;10.7;60.9
68873;BME280;55907;50.806;12.882;2023-05-10T03:08:09;967.1;;;10.7;61.9
68873;BME280;55907;50.806;12.882;2023-05-10T03:11:21;967.2;;;10.6;61.7
68873;BME280;55907;50.806;12.882;2023-05-10T03:14:17;967.3;;;10.5;61.5
68873;BME280;55907;50.806;12.882;2023-05-10T03:17:15;967.2;;;10.5;61.9
68873;BME280;55907;50.806;12.882;2023-05-10T03:20:21;967.2;;;10.5;61.7
68873;BME280;55907;50.806;12.882;2023-05-10T03:23:21;967.1;;;10.6;62.0
68873;BME280;55907;50.806;12.882;2023-05-10T03:26:22;967.2;;;10.7;61.5
68873;BME280;55907;50.806;12.882;2023-05-10T03:32:21;967.3;;;10.8;61.5
68873;BME280;55907;50.806;12.882;2023-05-10T03:35:23;967.3;;;10.8;61.3
68873;BME280;55907;50.806;12.882;2023-05-10T03:38:24;967.1;;;10.7;61.8
68873;BME280;55907;50.806;12.882;2023-05-10T03:41:25;967.1;;;10.7;61.5
68873;BME280;55907;50.806;12.882;2023-05-10T03:44:27;967.0;;;10.8;61.3
68873;BME280;55907;50.806;12.882;2023-05-10T03:47:28;967.1;;;10.9;61.2
68873;BME280;55907;50.806;12.882;2023-05-10T03:50:30;967.1;;;10.9;61.1
68873;BME280;55907;50.806;12.882;2023-05-10T03:53:31;967.0;;;10.9;61.1
68873;BME280;55907;50.806;12.882;2023-05-10T03:56:33;966.9;;;10.9;61.0
68873;BME280;55907;50.806;12.882;2023-05-10T03:59:35;966.9;;;10.9;61.0
68873;BME280;55907;50.806;12.882;2023-05-10T04:02:36;966.9;;;11.0;61.0
68873;BME280;55907;50.806;12.882;2023-05-10T04:05:38;966.9;;;11.1;60.7
68873;BME280;55907;50.806;12.882;2023-05-10T04:08:39;966.9;;;11.1;60.5
68873;BME280;55907;50.806;12.882;2023-05-10T04:11:41;966.9;;;11.1;60.5
68873;BME280;55907;50.806;12.882;2023-05-10T04:14:42;967.0;;;11.2;60.3
68873;BME280;55907;50.806;12.882;2023-05-10T04:17:44;967.0;;;11.1;60.2
68873;BME280;55907;50.806;12.882;2023-05-10T04:20:45;967.0;;;11.2;60.1
68873;BME280;55907;50.806;12.882;2023-05-10T04:23:47;966.9;;;11.3;59.5
68873;BME280;55907;50.806;12.882;2023-05-10T04:26:48;967.0;;;11.4;59.6
68873;BME280;55907;50.806;12.882;2023-05-10T04:29:50;966.9;;;11.4;59.3
68873;BME280;55907;50.806;12.882;2023-05-10T04:32:51;966.9;;;11.5;59.2
68873;BME280;55907;50.806;12.882;2023-05-10T04:35:52;966.9;;;11.6;58.6
68873;BME280;55907;50.806;12.882;2023-05-10T04:38:54;966.9;;;11.9;58.0
68873;BME280;55907;50.806;12.882;2023-05-10T04:41:55;966.8;;;12.0;57.7
68873;BME280;55907;50.806;12.882;2023-05-10T04:44:57;966.8;;;12.2;57.1
68873;BME280;55907;50.806;12.882;2023-05-10T04:47:58;966.8;;;12.8;55.7
68873;BME280;55907;50.806;12.882;2023-05-10T04:51:00;966.8;;;13.4;53.9
68873;BME280;55907;50.806;12.882;2023-05-10T04:54:02;966.9;;;13.7;52.5
68873;BME280;55907;50.806;12.882;2023-05-10T04:57:03;966.8;;;14.1;51.5
68873;BME280;55907;50.806;12.882;2023-05-10T05:00:05;966.9;;;14.6;50.4
68873;BME280;55907;50.806;12.882;2023-05-10T05:03:06;966.8;;;14.9;49.4
68873;BME280;55907;50.806;12.882;2023-05-10T05:06:07;966.8;;;14.9;49.0
68873;BME280;55907;50.806;12.882;2023-05-10T05:09:09;966.9;;;14.9;49.3
68873;BME280;55907;50.806;12.882;2023-05-10T05:12:10;966.9;;;15.1;49.1
68873;BME280;55907;50.806;12.882;2023-05-10T05:15:12;966.9;;;15.5;48.1
68873;BME280;55907;50.806;12.882;2023-05-10T05:18:13;966.9;;;16.1;46.6
68873;BME280;55907;50.806;12.882;2023-05-10T05:21:15;966.8;;;16.3;46.4
68873;BME280;55907;50.806;12.882;2023-05-10T05:24:16;967.0;;;16.1;46.4
68873;BME280;55907;50.806;12.882;2023-05-10T05:27:17;966.9;;;16.2;46.3
68873;BME280;55907;50.806;12.882;2023-05-10T05:30:19;966.9;;;16.5;46.1
68873;BME280;55907;50.806;12.882;2023-05-10T05:33:20;966.9;;;16.7;45.5
68873;BME280;55907;50.806;12.882;2023-05-10T05:36:22;966.9;;;16.9;44.8
68873;BME280;55907;50.806;12.882;2023-05-10T05:39:23;966.9;;;16.9;44.7
68873;BME280;55907;50.806;12.882;2023-05-10T05:42:25;966.9;;;16.4;45.6
68873;BME280;55907;50.806;12.882;2023-05-10T05:45:26;966.9;;;16.4;46.2
68873;BME280;55907;50.806;12.882;2023-05-10T05:48:29;967.0;;;16.3;46.3
68873;BME280;55907;50.806;12.882;2023-05-10T05:51:29;967.0;;;16.2;46.8
68873;BME280;55907;50.806;12.882;2023-05-10T05:54:31;966.9;;;16.1;47.2
68873;BME280;55907;50.806;12.882;2023-05-10T05:57:32;967.0;;;15.9;47.8
68873;BME280;55907;50.806;12.882;2023-05-10T06:00:34;967.1;;;15.9;47.9
68873;BME280;55907;50.806;12.882;2023-05-10T06:03:35;967.0;;;16.2;47.4
68873;BME280;55907;50.806;12.882;2023-05-10T06:06:36;967.1;;;16.1;47.6
68873;BME280;55907;50.806;12.882;2023-05-10T06:12:39;967.1;;;15.7;48.9
68873;BME280;55907;50.806;12.882;2023-05-10T06:15:41;967.1;;;15.4;49.8
68873;BME280;55907;50.806;12.882;2023-05-10T06:18:42;967.2;;;15.4;49.8
68873;BME280;55907;50.806;12.882;2023-05-10T06:21:43;967.2;;;15.2;50.3
68873;BME280;55907;50.806;12.882;2023-05-10T06:24:45;967.2;;;15.2;50.4
68873;BME280;55907;50.806;12.882;2023-05-10T06:27:47;967.3;;;15.2;50.3
68873;BME280;55907;50.806;12.882;2023-05-10T06:30:48;967.2;;;15.2;50.5
68873;BME280;55907;50.806;12.882;2023-05-10T06:33:49;967.2;;;15.0;51.0
68873;BME280;55907;50.806;12.882;2023-05-10T06:36:51;967.2;;;14.9;51.2
68873;BME280;55907;50.806;12.882;2023-05-10T06:39:52;967.2;;;15.0;51.1
68873;BME280;55907;50.806;12.882;2023-05-10T06:42:54;967.2;;;15.1;51.3
68873;BME280;55907;50.806;12.882;2023-05-10T06:48:57;967.3;;;15.3;50.7
68873;BME280;55907;50.806;12.882;2023-05-10T06:51:58;967.3;;;15.3;50.5
68873;BME280;55907;50.806;12.882;2023-05-10T06:55:00;967.2;;;15.3;50.8
68873;BME280;55907;50.806;12.882;2023-05-10T06:58:01;967.3;;;15.3;50.4
68873;BME280;55907;50.806;12.882;2023-05-10T07:01:03;967.3;;;15.4;50.2
68873;BME280;55907;50.806;12.882;2023-05-10T07:04:04;967.4;;;15.6;50.1
68873;BME280;55907;50.806;12.882;2023-05-10T07:07:05;967.4;;;15.8;49.8
68873;BME280;55907;50.806;12.882;2023-05-10T07:10:07;967.4;;;16.0;49.7
68873;BME280;55907;50.806;12.882;2023-05-10T07:13:08;967.4;;;16.2;49.0
68873;BME280;55907;50.806;12.882;2023-05-10T07:16:10;967.5;;;16.5;48.1
68873;BME280;55907;50.806;12.882;2023-05-10T07:19:11;967.5;;;17.0;47.7
68873;BME280;55907;50.806;12.882;2023-05-10T07:22:13;967.4;;;17.5;46.7
68873;BME280;55907;50.806;12.882;2023-05-10T07:25:14;967.5;;;17.9;45.4
68873;BME280;55907;50.806;12.882;2023-05-10T07:28:15;967.5;;;18.2;45.1
68873;BME280;55907;50.806;12.882;2023-05-10T07:31:17;967.5;;;18.1;44.9
68873;BME280;55907;50.806;12.882;2023-05-10T07:34:18;967.5;;;18.3;44.8
68873;BME280;55907;50.806;12.882;2023-05-10T07:37:20;967.6;;;18.5;44.5
68873;BME280;55907;50.806;12.882;2023-05-10T07:40:21;967.6;;;18.9;44.1
68873;BME280;55907;50.806;12.882;2023-05-10T07:43:23;967.6;;;19.1;43.9
68873;BME280;55907;50.806;12.882;2023-05-10T07:46:24;967.6;;;19.2;43.7
68873;BME280;55907;50.806;12.882;2023-05-10T07:49:25;967.7;;;19.2;43.8
68873;BME280;55907;50.806;12.882;2023-05-10T07:52:27;967.7;;;19.1;43.4
68873;BME280;55907;50.806;12.882;2023-05-10T07:58:30;967.8;;;18.8;43.6
68873;BME280;55907;50.806;12.882;2023-05-10T08:01:32;967.9;;;18.6;44.1
68873;BME280;55907;50.806;12.882;2023-05-10T08:04:32;967.9;;;18.5;44.5
68873;BME280;55907;50.806;12.882;2023-05-10T08:07:34;967.9;;;18.3;45.2
68873;BME280;55907;50.806;12.882;2023-05-10T08:10:35;967.9;;;18.2;45.8
68873;BME280;55907;50.806;12.882;2023-05-10T08:13:37;967.9;;;18.0;46.0
68873;BME280;55907;50.806;12.882;2023-05-10T08:16:38;968.0;;;17.9;46.0
68873;BME280;55907;50.806;12.882;2023-05-10T08:19:39;968.0;;;18.0;46.1
68873;BME280;55907;50.806;12.882;2023-05-10T08:22:41;968.1;;;17.9;45.8
68873;BME280;55907;50.806;12.882;2023-05-10T08:25:42;968.1;;;17.8;45.9
68873;BME280;55907;50.806;12.882;2023-05-10T08:28:44;968.2;;;17.8;46.2
68873;BME280;55907;50.806;12.882;2023-05-10T08:31:45;968.2;;;17.5;46.6
68873;BME280;55907;50.806;12.882;2023-05-10T08:34:47;968.2;;;17.4;47.2
68873;BME280;55907;50.806;12.882;2023-05-10T08:37:48;968.3;;;17.3;47.8
68873;BME280;55907;50.806;12.882;2023-05-10T08:40:52;968.3;;;17.1;48.2
68873;BME280;55907;50.806;12.882;2023-05-10T08:43:51;968.3;;;17.0;48.6
68873;BME280;55907;50.806;12.882;2023-05-10T08:46:53;968.3;;;16.8;48.9
68873;BME280;55907;50.806;12.882;2023-05-10T08:49:54;968.4;;;16.6;49.1
68873;BME280;55907;50.806;12.882;2023-05-10T08:52:57;968.4;;;16.4;50.9
68873;BME280;55907;50.806;12.882;2023-05-10T08:55:57;968.5;;;16.2;52.5
68873;BME280;55907;50.806;12.882;2023-05-10T08:58:58;968.4;;;16.0;53.5
68873;BME280;55907;50.806;12.882;2023-05-10T09:02:00;968.5;;;15.7;55.0
68873;BME280;55907;50.806;12.882;2023-05-10T09:05:01;968.5;;;15.5;56.4
68873;BME280;55907;50.806;12.882;2023-05-10T09:08:02;968.5;;;15.3;56.9
68873;BME280;55907;50.806;12.882;2023-05-10T09:11:05;968.5;;;15.2;57.7
68873;BME280;55907;50.806;12.882;2023-05-10T09:14:05;968.6;;;15.2;57.9
68873;BME280;55907;50.806;12.882;2023-05-10T09:17:07;968.6;;;15.2;57.7
68873;BME280;55907;50.806;12.882;2023-05-10T09:20:08;968.6;;;15.3;59.1
68873;BME280;55907;50.806;12.882;2023-05-10T09:26:11;968.8;;;15.2;57.4
68873;BME280;55907;50.806;12.882;2023-05-10T09:29:13;968.8;;;15.1;57.9
68873;BME280;55907;50.806;12.882;2023-05-10T09:32:14;968.8;;;15.1;57.8
68873;BME280;55907;50.806;12.882;2023-05-10T09:35:18;968.8;;;15.0;58.2
68873;BME280;55907;50.806;12.882;2023-05-10T09:38:17;968.9;;;15.1;58.4
68873;BME280;55907;50.806;12.882;2023-05-10T09:41:20;968.9;;;15.1;59.8
68873;BME280;55907;50.806;12.882;2023-05-10T09:44:20;969.0;;;15.0;61.3
68873;BME280;55907;50.806;12.882;2023-05-10T09:47:21;969.0;;;14.9;62.6
68873;BME280;55907;50.806;12.882;2023-05-10T09:50:23;969.0;;;14.6;63.7
68873;BME280;55907;50.806;12.882;2023-05-10T09:53:24;969.0;;;14.3;67.1
68873;BME280;55907;50.806;12.882;2023-05-10T09:56:34;969.0;;;14.1;68.6
68873;BME280;55907;50.806;12.882;2023-05-10T09:59:28;969.1;;;14.0;69.8
68873;BME280;55907;50.806;12.882;2023-05-10T10:02:29;969.1;;;13.8;70.4
68873;BME280;55907;50.806;12.882;2023-05-10T10:05:31;969.1;;;13.7;71.2
68873;BME280;55907;50.806;12.882;2023-05-10T10:08:32;969.1;;;13.6;71.4
68873;BME280;55907;50.806;12.882;2023-05-10T10:11:34;969.1;;;13.5;71.6
68873;BME280;55907;50.806;12.882;2023-05-10T10:14:35;969.1;;;13.5;70.0
68873;BME280;55907;50.806;12.882;2023-05-10T10:17:36;969.1;;;13.5;70.1
68873;BME280;55907;50.806;12.882;2023-05-10T10:20:37;969.1;;;13.6;69.1
68873;BME280;55907;50.806;12.882;2023-05-10T10:23:39;969.1;;;13.6;69.1
68873;BME280;55907;50.806;12.882;2023-05-10T10:26:41;969.1;;;13.8;67.6
68873;BME280;55907;50.806;12.882;2023-05-10T10:29:49;969.0;;;13.9;68.0
68873;BME280;55907;50.806;12.882;2023-05-10T10:33:13;969.0;;;14.0;68.0
68873;BME280;55907;50.806;12.882;2023-05-10T10:35:45;969.0;;;14.1;66.9
68873;BME280;55907;50.806;12.882;2023-05-10T10:38:55;969.0;;;14.1;66.4
68873;BME280;55907;50.806;12.882;2023-05-10T10:41:50;969.1;;;14.2;67.7
68873;BME280;55907;50.806;12.882;2023-05-10T10:50:56;969.2;;;14.2;65.8
68873;BME280;55907;50.806;12.882;2023-05-10T10:53:54;969.1;;;14.2;65.5
68873;BME280;55907;50.806;12.882;2023-05-10T10:57:10;969.2;;;14.2;65.4
68873;BME280;55907;50.806;12.882;2023-05-10T11:02:59;969.2;;;14.2;66.0
68873;BME280;55907;50.806;12.882;2023-05-10T11:06:00;969.2;;;14.2;65.4
68873;BME280;55907;50.806;12.882;2023-05-10T11:09:05;969.2;;;14.2;66.0
68873;BME280;55907;50.806;12.882;2023-05-10T11:12:08;969.3;;;14.3;66.0
68873;BME280;55907;50.806;12.882;2023-05-10T11:15:08;969.3;;;14.4;64.7
68873;BME280;55907;50.806;12.882;2023-05-10T11:18:16;969.3;;;14.5;63.9
68873;BME280;55907;50.806;12.882;2023-05-10T11:21:08;969.3;;;14.4;64.8
68873;BME280;55907;50.806;12.882;2023-05-10T11:24:13;969.3;;;14.6;64.8
68873;BME280;55907;50.806;12.882;2023-05-10T11:27:10;969.4;;;14.5;66.4
68873;BME280;55907;50.806;12.882;2023-05-10T11:30:12;969.4;;;14.3;68.6
68873;BME280;55907;50.806;12.882;2023-05-10T11:33:15;969.5;;;14.2;71.6
68873;BME280;55907;50.806;12.882;2023-05-10T11:39:16;969.5;;;14.0;75.1
68873;BME280;55907;50.806;12.882;2023-05-10T11:42:17;969.5;;;14.0;75.8
68873;BME280;55907;50.806;12.882;2023-05-10T11:45:19;969.5;;;14.0;76.3
68873;BME280;55907;50.806;12.882;2023-05-10T11:48:20;969.5;;;14.0;77.0
68873;BME280;55907;50.806;12.882;2023-05-10T11:51:23;969.5;;;14.0;78.4
68873;BME280;55907;50.806;12.882;2023-05-10T11:54:23;969.5;;;14.0;78.6
68873;BME280;55907;50.806;12.882;2023-05-10T11:57:26;969.5;;;13.9;78.0
68873;BME280;55907;50.806;12.882;2023-05-10T12:00:26;969.6;;;13.8;77.5
68873;BME280;55907;50.806;12.882;2023-05-10T12:03:28;969.6;;;13.7;78.1
68873;BME280;55907;50.806;12.882;2023-05-10T12:06:31;969.6;;;13.7;78.6
68873;BME280;55907;50.806;12.882;2023-05-10T12:09:30;969.7;;;13.7;79.7
68873;BME280;55907;50.806;12.882;2023-05-10T12:12:36;969.6;;;13.7;80.3
68873;BME280;55907;50.806;12.882;2023-05-10T12:15:33;969.7;;;13.8;79.3
68873;BME280;55907;50.806;12.882;2023-05-10T12:18:38;969.7;;;13.8;81.3
68873;BME280;55907;50.806;12.882;2023-05-10T12:21:36;969.7;;;13.8;80.7
68873;BME280;55907;50.806;12.882;2023-05-10T12:24:38;969.7;;;13.7;82.3
68873;BME280;55907;50.806;12.882;2023-05-10T12:27:39;969.7;;;13.9;82.2
68873;BME280;55907;50.806;12.882;2023-05-10T12:30:41;969.8;;;13.9;82.3
68873;BME280;55907;50.806;12.882;2023-05-10T12:33:43;969.7;;;14.0;80.4
68873;BME280;55907;50.806;12.882;2023-05-10T12:36:43;969.8;;;14.1;81.4
68873;BME280;55907;50.806;12.882;2023-05-10T12:39:45;969.8;;;14.2;79.5
68873;BME280;55907;50.806;12.882;2023-05-10T12:42:46;969.8;;;14.3;79.8
68873;BME280;55907;50.806;12.882;2023-05-10T12:45:48;969.8;;;14.4;81.0
68873;BME280;55907;50.806;12.882;2023-05-10T12:48:49;969.8;;;14.6;80.2
68873;BME280;55907;50.806;12.882;2023-05-10T12:51:51;969.8;;;14.8;79.8
68873;BME280;55907;50.806;12.882;2023-05-10T12:54:53;969.8;;;15.0;78.3
68873;BME280;55907;50.806;12.882;2023-05-10T12:57:54;969.8;;;15.2;78.3
68873;BME280;55907;50.806;12.882;2023-05-10T13:00:55;969.8;;;15.3;78.4
68873;BME280;55907;50.806;12.882;2023-05-10T13:03:57;969.8;;;15.4;77.3
68873;BME280;55907;50.806;12.882;2023-05-10T13:06:58;969.8;;;15.6;76.1
68873;BME280;55907;50.806;12.882;2023-05-10T13:09:59;969.8;;;15.6;76.8
68873;BME280;55907;50.806;12.882;2023-05-10T13:13:01;969.8;;;15.8;75.1
68873;BME280;55907;50.806;12.882;2023-05-10T13:16:02;969.8;;;16.0;75.3
68873;BME280;55907;50.806;12.882;2023-05-10T13:19:04;969.8;;;16.2;75.4
68873;BME280;55907;50.806;12.882;2023-05-10T13:22:05;969.8;;;16.3;74.1
68873;BME280;55907;50.806;12.882;2023-05-10T13:25:07;969.7;;;16.4;73.1
68873;BME280;55907;50.806;12.882;2023-05-10T13:28:08;969.8;;;16.5;73.4
68873;BME280;55907;50.806;12.882;2023-05-10T13:31:09;969.8;;;16.5;72.1
68873;BME280;55907;50.806;12.882;2023-05-10T13:34:11;969.7;;;16.7;71.9
68873;BME280;55907;50.806;12.882;2023-05-10T13:37:12;969.7;;;16.8;71.7
68873;BME280;55907;50.806;12.882;2023-05-10T13:43:15;969.7;;;17.1;70.6
68873;BME280;55907;50.806;12.882;2023-05-10T13:46:17;969.7;;;17.3;70.4
68873;BME280;55907;50.806;12.882;2023-05-10T13:49:18;969.7;;;17.4;70.7
68873;BME280;55907;50.806;12.882;2023-05-10T13:52:20;969.7;;;17.3;69.0
68873;BME280;55907;50.806;12.882;2023-05-10T13:55:21;969.7;;;17.3;69.0
68873;BME280;55907;50.806;12.882;2023-05-10T13:58:22;969.7;;;17.3;68.5
68873;BME280;55907;50.806;12.882;2023-05-10T14:01:24;969.7;;;17.3;68.3
68873;BME280;55907;50.806;12.882;2023-05-10T14:07:27;969.7;;;17.1;69.1
68873;BME280;55907;50.806;12.882;2023-05-10T14:10:28;969.7;;;17.2;68.7
68873;BME280;55907;50.806;12.882;2023-05-10T14:13:30;969.7;;;17.2;68.5
68873;BME280;55907;50.806;12.882;2023-05-10T14:16:31;969.7;;;17.2;68.7
68873;BME280;55907;50.806;12.882;2023-05-10T14:19:33;969.7;;;17.1;68.8
68873;BME280;55907;50.806;12.882;2023-05-10T14:22:34;969.6;;;17.0;69.6
68873;BME280;55907;50.806;12.882;2023-05-10T14:25:36;969.7;;;17.0;69.1
68873;BME280;55907;50.806;12.882;2023-05-10T14:28:37;969.6;;;17.0;69.1
68873;BME280;55907;50.806;12.882;2023-05-10T14:31:40;969.7;;;16.9;69.4
68873;BME280;55907;50.806;12.882;2023-05-10T14:34:40;969.7;;;16.9;69.8
68873;BME280;55907;50.806;12.882;2023-05-10T14:37:41;969.7;;;17.0;70.2
68873;BME280;55907;50.806;12.882;2023-05-10T14:40:43;969.6;;;16.9;71.1
68873;BME280;55907;50.806;12.882;2023-05-10T14:43:44;969.6;;;17.0;70.0
68873;BME280;55907;50.806;12.882;2023-05-10T14:46:46;969.6;;;16.8;69.7
68873;BME280;55907;50.806;12.882;2023-05-10T14:49:47;969.6;;;16.8;70.8
68873;BME280;55907;50.806;12.882;2023-05-10T14:52:49;969.6;;;16.7;70.9
68873;BME280;55907;50.806;12.882;2023-05-10T14:58:51;969.6;;;16.7;72.3
68873;BME280;55907;50.806;12.882;2023-05-10T15:01:53;969.6;;;16.7;71.9
68873;BME280;55907;50.806;12.882;2023-05-10T15:04:54;969.6;;;16.8;71.9
68873;BME280;55907;50.806;12.882;2023-05-10T15:07:56;969.6;;;16.8;72.0
68873;BME280;55907;50.806;12.882;2023-05-10T15:10:57;969.6;;;16.8;72.0
68873;BME280;55907;50.806;12.882;2023-05-10T15:13:59;969.6;;;16.7;73.2
68873;BME280;55907;50.806;12.882;2023-05-10T15:17:00;969.6;;;16.8;72.2
68873;BME280;55907;50.806;12.882;2023-05-10T15:20:02;969.6;;;16.7;72.6
68873;BME280;55907;50.806;12.882;2023-05-10T15:23:03;969.7;;;16.6;73.4
68873;BME280;55907;50.806;12.882;2023-05-10T15:26:05;969.7;;;16.6;74.0
68873;BME280;55907;50.806;12.882;2023-05-10T15:29:06;969.7;;;16.6;75.7
68873;BME280;55907;50.806;12.882;2023-05-10T15:32:07;969.7;;;16.5;75.3
68873;BME280;55907;50.806;12.882;2023-05-10T15:35:09;969.7;;;16.5;74.8
68873;BME280;55907;50.806;12.882;2023-05-10T15:38:10;969.7;;;16.4;75.3
68873;BME280;55907;50.806;12.882;2023-05-10T15:44:13;969.7;;;16.3;76.4
68873;BME280;55907;50.806;12.882;2023-05-10T15:47:15;969.8;;;16.3;76.8
68873;BME280;55907;50.806;12.882;2023-05-10T15:50:16;969.7;;;16.2;77.2
68873;BME280;55907;50.806;12.882;2023-05-10T15:53:18;969.8;;;16.2;78.0
68873;BME280;55907;50.806;12.882;2023-05-10T15:56:19;969.8;;;16.1;78.8
68873;BME280;55907;50.806;12.882;2023-05-10T15:59:20;969.8;;;16.0;79.1
68873;BME280;55907;50.806;12.882;2023-05-10T16:02:22;969.8;;;15.9;79.7
68873;BME280;55907;50.806;12.882;2023-05-10T16:05:23;969.8;;;15.9;80.2
68873;BME280;55907;50.806;12.882;2023-05-10T16:08:25;969.8;;;15.8;80.6
68873;BME280;55907;50.806;12.882;2023-05-10T16:11:26;969.8;;;15.8;81.1
68873;BME280;55907;50.806;12.882;2023-05-10T16:14:28;969.7;;;15.7;79.3
68873;BME280;55907;50.806;12.882;2023-05-10T16:17:29;969.7;;;15.6;80.6
68873;BME280;55907;50.806;12.882;2023-05-10T16:20:31;969.8;;;15.5;81.6
68873;BME280;55907;50.806;12.882;2023-05-10T16:23:32;969.8;;;15.5;83.0
68873;BME280;55907;50.806;12.882;2023-05-10T16:29:35;969.8;;;15.4;84.0
68873;BME280;55907;50.806;12.882;2023-05-10T16:32:36;969.8;;;15.4;85.7
68873;BME280;55907;50.806;12.882;2023-05-10T16:35:38;969.8;;;15.3;87.7
68873;BME280;55907;50.806;12.882;2023-05-10T16:38:39;969.8;;;15.2;88.0
68873;BME280;55907;50.806;12.882;2023-05-10T16:41:41;969.8;;;15.2;88.2
68873;BME280;55907;50.806;12.882;2023-05-10T16:44:42;969.8;;;15.2;88.1
68873;BME280;55907;50.806;12.882;2023-05-10T16:47:44;969.8;;;15.1;85.7
68873;BME280;55907;50.806;12.882;2023-05-10T16:50:45;969.8;;;15.1;86.3
68873;BME280;55907;50.806;12.882;2023-05-10T16:53:47;969.8;;;15.0;85.4
68873;BME280;55907;50.806;12.882;2023-05-10T16:56:48;969.8;;;15.0;85.5
68873;BME280;55907;50.806;12.882;2023-05-10T16:59:50;969.8;;;14.9;85.2
68873;BME280;55907;50.806;12.882;2023-05-10T17:02:51;969.9;;;15.0;86.0
68873;BME280;55907;50.806;12.882;2023-05-10T17:05:53;969.9;;;14.9;86.1
68873;BME280;55907;50.806;12.882;2023-05-10T17:08:54;970.0;;;14.9;86.0
68873;BME280;55907;50.806;12.882;2023-05-10T17:11:56;969.9;;;14.9;85.3
68873;BME280;55907;50.806;12.882;2023-05-10T17:17:58;970.0;;;14.9;85.3
68873;BME280;55907;50.806;12.882;2023-05-10T17:21:00;970.0;;;14.9;85.0
68873;BME280;55907;50.806;12.882;2023-05-10T17:24:01;970.0;;;14.8;84.8
68873;BME280;55907;50.806;12.882;2023-05-10T17:27:03;970.0;;;14.8;85.9
68873;BME280;55907;50.806;12.882;2023-05-10T17:30:05;970.0;;;14.7;86.1
68873;BME280;55907;50.806;12.882;2023-05-10T17:33:06;970.0;;;14.7;86.5
68873;BME280;55907;50.806;12.882;2023-05-10T17:36:07;970.0;;;14.6;86.5
68873;BME280;55907;50.806;12.882;2023-05-10T17:39:09;970.0;;;14.7;85.5
68873;BME280;55907;50.806;12.882;2023-05-10T17:42:10;970.0;;;14.6;85.4
68873;BME280;55907;50.806;12.882;2023-05-10T17:45:12;970.1;;;14.6;85.9